sensor_id;sensor_type;location;lat;lon;timestamp;P1;durP1;ratioP1;P2;durP2;ratioP2
36221;SDS011;22266;52.340;4.962;2022-11-20T00:01:21;26.50;;;21.00;;
36221;SDS011;22266;52.340;4.962;2022-11-20T00:03:53;18.00;;;17.50;;
36221;SDS011;22266;52.340;4.962;2022-11-20T00:06:21;19.75;;;17.00;;
36221;SDS011;22266;52.340;4.962;2022-11-20T00:08:48;17.00;;;16.00;;
36221;SDS011;22266;52.340;4.962;2022-11-20T00:11:16;18.75;;;16.00;;
36221;SDS011;22266;52.340;4.962;2022-11-20T00:13:44;23.50;;;19.25;;
36221;SDS011;22266;52.340;4.962;2022-11-20T00:16:13;22.25;;;17.00;;
36221;SDS011;22266;52.340;4.962;2022-11-20T00:18:41;20.00;;;13.00;;
36221;SDS011;22266;52.340;4.962;2022-11-20T00:21:12;14.50;;;12.75;;
36221;SDS011;22266;52.340;4.962;2022-11-20T00:23:43;15.00;;;15.00;;
36221;SDS011;22266;52.340;4.962;2022-11-20T00:26:10;14.00;;;13.00;;
36221;SDS011;22266;52.340;4.962;2022-11-20T00:28:39;21.00;;;15.00;;
36221;SDS011;22266;52.340;4.962;2022-11-20T00:31:06;16.50;;;14.75;;
36221;SDS011;22266;52.340;4.962;2022-11-20T00:33:34;25.75;;;20.50;;
36221;SDS011;22266;52.340;4.962;2022-11-20T00:36:02;22.00;;;14.25;;
36221;SDS011;22266;52.340;4.962;2022-11-20T00:38:30;12.25;;;12.25;;
36221;SDS011;22266;52.340;4.962;2022-11-20T00:41:00;17.00;;;10.50;;
36221;SDS011;22266;52.340;4.962;2022-11-20T00:43:28;21.75;;;18.50;;
36221;SDS011;22266;52.340;4.962;2022-11-20T00:45:58;14.25;;;10.00;;
36221;SDS011;22266;52.340;4.962;2022-11-20T00:48:29;15.75;;;14.50;;
36221;SDS011;22266;52.340;4.962;2022-11-20T00:50:56;12.00;;;9.75;;
36221;SDS011;22266;52.340;4.962;2022-11-20T00:53:23;17.50;;;14.50;;
36221;SDS011;22266;52.340;4.962;2022-11-20T00:55:58;15.50;;;15.25;;
36221;SDS011;22266;52.340;4.962;2022-11-20T00:58:28;17.25;;;14.25;;
36221;SDS011;22266;52.340;4.962;2022-11-20T01:01:00;12.50;;;11.25;;
36221;SDS011;22266;52.340;4.962;2022-11-20T01:03:30;17.50;;;15.75;;
36221;SDS011;22266;52.340;4.962;2022-11-20T01:06:06;17.50;;;14.50;;
36221;SDS011;22266;52.340;4.962;2022-11-20T01:08:35;16.75;;;15.00;;
36221;SDS011;22266;52.340;4.962;2022-11-20T01:11:03;16.25;;;15.25;;
36221;SDS011;22266;52.340;4.962;2022-11-20T01:13:32;18.00;;;16.00;;
36221;SDS011;22266;52.340;4.962;2022-11-20T01:16:09;19.50;;;18.75;;
36221;SDS011;22266;52.340;4.962;2022-11-20T01:18:41;18.00;;;17.00;;
36221;SDS011;22266;52.340;4.962;2022-11-20T01:21:13;17.50;;;13.25;;
36221;SDS011;22266;52.340;4.962;2022-11-20T01:23:41;11.50;;;9.75;;
36221;SDS011;22266;52.340;4.962;2022-11-20T01:26:10;12.50;;;11.50;;
36221;SDS011;22266;52.340;4.962;2022-11-20T01:28:39;18.00;;;16.00;;
36221;SDS011;22266;52.340;4.962;2022-11-20T01:31:10;18.50;;;16.00;;
36221;SDS011;22266;52.340;4.962;2022-11-20T01:34:01;17.00;;;17.00;;
36221;SDS011;22266;52.340;4.962;2022-11-20T01:36:32;15.50;;;14.00;;
36221;SDS011;22266;52.340;4.962;2022-11-20T01:39:01;16.25;;;15.25;;
36221;SDS011;22266;52.340;4.962;2022-11-20T01:41:30;27.00;;;17.00;;
36221;SDS011;22266;52.340;4.962;2022-11-20T01:44:18;19.50;;;18.75;;
36221;SDS011;22266;52.340;4.962;2022-11-20T01:46:56;17.75;;;17.00;;
36221;SDS011;22266;52.340;4.962;2022-11-20T01:49:33;24.25;;;12.50;;
36221;SDS011;22266;52.340;4.962;2022-11-20T01:52:05;16.00;;;13.50;;
36221;SDS011;22266;52.340;4.962;2022-11-20T01:54:40;18.50;;;16.00;;
36221;SDS011;22266;52.340;4.962;2022-11-20T01:57:12;15.50;;;13.50;;
36221;SDS011;22266;52.340;4.962;2022-11-20T01:59:50;18.00;;;15.50;;
36221;SDS011;22266;52.340;4.962;2022-11-20T02:02:23;18.00;;;13.50;;
36221;SDS011;22266;52.340;4.962;2022-11-20T02:04:50;18.75;;;15.00;;
36221;SDS011;22266;52.340;4.962;2022-11-20T02:07:20;16.50;;;16.50;;
36221;SDS011;22266;52.340;4.962;2022-11-20T02:09:47;17.75;;;14.25;;
36221;SDS011;22266;52.340;4.962;2022-11-20T02:12:13;17.00;;;14.50;;
36221;SDS011;22266;52.340;4.962;2022-11-20T02:15:00;16.25;;;12.50;;
36221;SDS011;22266;52.340;4.962;2022-11-20T02:17:27;19.50;;;16.00;;
36221;SDS011;22266;52.340;4.962;2022-11-20T02:19:53;16.00;;;13.25;;
36221;SDS011;22266;52.340;4.962;2022-11-20T02:22:22;15.50;;;15.00;;
36221;SDS011;22266;52.340;4.962;2022-11-20T02:24:57;16.50;;;15.25;;
36221;SDS011;22266;52.340;4.962;2022-11-20T02:27:28;15.50;;;14.00;;
36221;SDS011;22266;52.340;4.962;2022-11-20T02:30:02;19.50;;;15.00;;
36221;SDS011;22266;52.340;4.962;2022-11-20T02:32:31;18.25;;;13.50;;
36221;SDS011;22266;52.340;4.962;2022-11-20T02:37:54;14.25;;;12.00;;
36221;SDS011;22266;52.340;4.962;2022-11-20T02:40:22;19.75;;;18.75;;
36221;SDS011;22266;52.340;4.962;2022-11-20T02:42:52;15.75;;;15.50;;
36221;SDS011;22266;52.340;4.962;2022-11-20T02:45:19;16.50;;;13.50;;
36221;SDS011;22266;52.340;4.962;2022-11-20T02:47:45;18.25;;;18.25;;
36221;SDS011;22266;52.340;4.962;2022-11-20T02:50:12;19.50;;;16.50;;
36221;SDS011;22266;52.340;4.962;2022-11-20T02:52:38;16.50;;;13.50;;
36221;SDS011;22266;52.340;4.962;2022-11-20T02:55:05;16.50;;;15.00;;
36221;SDS011;22266;52.340;4.962;2022-11-20T02:57:32;15.75;;;15.75;;
36221;SDS011;22266;52.340;4.962;2022-11-20T02:59:58;14.50;;;14.50;;
36221;SDS011;22266;52.340;4.962;2022-11-20T03:02:24;19.00;;;17.00;;
36221;SDS011;22266;52.340;4.962;2022-11-20T03:04:51;19.75;;;14.00;;
36221;SDS011;22266;52.340;4.962;2022-11-20T03:07:17;15.25;;;15.25;;
36221;SDS011;22266;52.340;4.962;2022-11-20T03:09:44;15.50;;;12.50;;
36221;SDS011;22266;52.340;4.962;2022-11-20T03:12:10;16.50;;;15.75;;
36221;SDS011;22266;52.340;4.962;2022-11-20T03:14:37;19.00;;;15.50;;
36221;SDS011;22266;52.340;4.962;2022-11-20T03:17:03;18.50;;;16.00;;
36221;SDS011;22266;52.340;4.962;2022-11-20T03:19:29;18.75;;;18.25;;
36221;SDS011;22266;52.340;4.962;2022-11-20T03:21:56;21.00;;;16.00;;
36221;SDS011;22266;52.340;4.962;2022-11-20T03:24:22;18.00;;;14.50;;
36221;SDS011;22266;52.340;4.962;2022-11-20T03:26:49;16.00;;;15.75;;
36221;SDS011;22266;52.340;4.962;2022-11-20T03:29:15;21.75;;;20.00;;
36221;SDS011;22266;52.340;4.962;2022-11-20T03:31:41;21.25;;;17.50;;
36221;SDS011;22266;52.340;4.962;2022-11-20T03:34:09;15.50;;;12.50;;
36221;SDS011;22266;52.340;4.962;2022-11-20T03:36:37;12.75;;;10.50;;
36221;SDS011;22266;52.340;4.962;2022-11-20T03:39:04;18.00;;;15.00;;
36221;SDS011;22266;52.340;4.962;2022-11-20T03:41:34;23.00;;;16.00;;
36221;SDS011;22266;52.340;4.962;2022-11-20T03:44:04;16.00;;;16.00;;
36221;SDS011;22266;52.340;4.962;2022-11-20T03:46:32;14.50;;;12.50;;
36221;SDS011;22266;52.340;4.962;2022-11-20T03:48:58;15.00;;;15.00;;
36221;SDS011;22266;52.340;4.962;2022-11-20T03:51:26;19.25;;;15.75;;
36221;SDS011;22266;52.340;4.962;2022-11-20T03:53:55;15.50;;;12.75;;
36221;SDS011;22266;52.340;4.962;2022-11-20T03:56:24;21.50;;;16.25;;
36221;SDS011;22266;52.340;4.962;2022-11-20T03:58:52;12.00;;;12.00;;
36221;SDS011;22266;52.340;4.962;2022-11-20T04:01:20;17.25;;;15.00;;
36221;SDS011;22266;52.340;4.962;2022-11-20T04:03:57;20.00;;;15.00;;
36221;SDS011;22266;52.340;4.962;2022-11-20T04:06:24;13.00;;;13.00;;
36221;SDS011;22266;52.340;4.962;2022-11-20T04:08:56;23.00;;;15.25;;
36221;SDS011;22266;52.340;4.962;2022-11-20T04:11:25;17.00;;;17.00;;
36221;SDS011;22266;52.340;4.962;2022-11-20T04:13:56;23.50;;;16.00;;
36221;SDS011;22266;52.340;4.962;2022-11-20T04:16:31;18.25;;;16.00;;
36221;SDS011;22266;52.340;4.962;2022-11-20T04:19:00;15.00;;;15.00;;
36221;SDS011;22266;52.340;4.962;2022-11-20T04:21:29;18.00;;;16.50;;
36221;SDS011;22266;52.340;4.962;2022-11-20T04:23:56;17.50;;;16.00;;
36221;SDS011;22266;52.340;4.962;2022-11-20T04:26:23;15.50;;;15.25;;
36221;SDS011;22266;52.340;4.962;2022-11-20T04:28:51;20.00;;;17.50;;
36221;SDS011;22266;52.340;4.962;2022-11-20T04:31:19;16.50;;;12.50;;
36221;SDS011;22266;52.340;4.962;2022-11-20T04:33:47;22.75;;;19.50;;
36221;SDS011;22266;52.340;4.962;2022-11-20T04:36:15;19.00;;;15.75;;
36221;SDS011;22266;52.340;4.962;2022-11-20T04:38:43;19.25;;;17.00;;
36221;SDS011;22266;52.340;4.962;2022-11-20T04:41:17;19.50;;;15.75;;
36221;SDS011;22266;52.340;4.962;2022-11-20T04:43:52;20.00;;;19.00;;
36221;SDS011;22266;52.340;4.962;2022-11-20T04:46:25;21.00;;;18.25;;
36221;SDS011;22266;52.340;4.962;2022-11-20T04:48:53;16.00;;;16.00;;
36221;SDS011;22266;52.340;4.962;2022-11-20T04:51:19;23.50;;;18.00;;
36221;SDS011;22266;52.340;4.962;2022-11-20T04:53:46;21.25;;;15.50;;
36221;SDS011;22266;52.340;4.962;2022-11-20T04:56:13;16.75;;;14.00;;
36221;SDS011;22266;52.340;4.962;2022-11-20T04:58:40;20.50;;;11.75;;
36221;SDS011;22266;52.340;4.962;2022-11-20T05:01:11;16.25;;;15.75;;
36221;SDS011;22266;52.340;4.962;2022-11-20T05:03:40;18.00;;;15.00;;
36221;SDS011;22266;52.340;4.962;2022-11-20T05:06:09;21.00;;;16.00;;
36221;SDS011;22266;52.340;4.962;2022-11-20T05:08:36;16.00;;;15.25;;
36221;SDS011;22266;52.340;4.962;2022-11-20T05:11:07;16.50;;;15.00;;
36221;SDS011;22266;52.340;4.962;2022-11-20T05:13:35;20.00;;;17.00;;
36221;SDS011;22266;52.340;4.962;2022-11-20T05:16:07;22.00;;;17.50;;
36221;SDS011;22266;52.340;4.962;2022-11-20T05:18:39;19.25;;;15.25;;
36221;SDS011;22266;52.340;4.962;2022-11-20T05:21:06;21.00;;;17.00;;
36221;SDS011;22266;52.340;4.962;2022-11-20T05:23:34;21.75;;;19.50;;
36221;SDS011;22266;52.340;4.962;2022-11-20T05:26:01;22.75;;;17.00;;
36221;SDS011;22266;52.340;4.962;2022-11-20T05:28:28;21.75;;;18.75;;
36221;SDS011;22266;52.340;4.962;2022-11-20T05:31:03;26.75;;;23.50;;
36221;SDS011;22266;52.340;4.962;2022-11-20T05:33:33;15.50;;;12.25;;
36221;SDS011;22266;52.340;4.962;2022-11-20T05:36:02;19.25;;;17.00;;
36221;SDS011;22266;52.340;4.962;2022-11-20T05:38:30;17.50;;;17.00;;
36221;SDS011;22266;52.340;4.962;2022-11-20T05:43:40;17.50;;;17.00;;
36221;SDS011;22266;52.340;4.962;2022-11-20T05:46:09;20.50;;;17.00;;
36221;SDS011;22266;52.340;4.962;2022-11-20T05:48:37;16.00;;;14.00;;
36221;SDS011;22266;52.340;4.962;2022-11-20T05:51:06;17.00;;;16.00;;
36221;SDS011;22266;52.340;4.962;2022-11-20T05:53:34;12.50;;;10.00;;
36221;SDS011;22266;52.340;4.962;2022-11-20T05:56:02;20.50;;;17.00;;
36221;SDS011;22266;52.340;4.962;2022-11-20T05:58:31;22.25;;;18.75;;
36221;SDS011;22266;52.340;4.962;2022-11-20T06:01:32;18.00;;;18.00;;
36221;SDS011;22266;52.340;4.962;2022-11-20T06:03:52;18.25;;;18.00;;
36221;SDS011;22266;52.340;4.962;2022-11-20T06:06:19;21.00;;;20.50;;
36221;SDS011;22266;52.340;4.962;2022-11-20T06:08:46;17.50;;;16.00;;
36221;SDS011;22266;52.340;4.962;2022-11-20T06:11:13;20.50;;;19.50;;
36221;SDS011;22266;52.340;4.962;2022-11-20T06:13:40;25.50;;;19.00;;
36221;SDS011;22266;52.340;4.962;2022-11-20T06:16:08;18.00;;;15.00;;
36221;SDS011;22266;52.340;4.962;2022-11-20T06:18:35;18.00;;;15.50;;
36221;SDS011;22266;52.340;4.962;2022-11-20T06:21:09;20.00;;;16.75;;
36221;SDS011;22266;52.340;4.962;2022-11-20T06:23:37;18.25;;;14.00;;
36221;SDS011;22266;52.340;4.962;2022-11-20T06:26:05;23.50;;;18.00;;
36221;SDS011;22266;52.340;4.962;2022-11-20T06:28:33;24.00;;;16.00;;
36221;SDS011;22266;52.340;4.962;2022-11-20T06:30:59;36.25;;;23.00;;
36221;SDS011;22266;52.340;4.962;2022-11-20T06:33:26;21.25;;;17.00;;
36221;SDS011;22266;52.340;4.962;2022-11-20T06:35:55;24.00;;;20.50;;
36221;SDS011;22266;52.340;4.962;2022-11-20T06:38:27;20.25;;;16.00;;
36221;SDS011;22266;52.340;4.962;2022-11-20T06:40:54;19.50;;;14.50;;
36221;SDS011;22266;52.340;4.962;2022-11-20T06:43:21;17.75;;;16.75;;
36221;SDS011;22266;52.340;4.962;2022-11-20T06:45:55;25.25;;;18.00;;
36221;SDS011;22266;52.340;4.962;2022-11-20T06:48:22;17.25;;;14.75;;
36221;SDS011;22266;52.340;4.962;2022-11-20T06:50:50;18.50;;;15.25;;
36221;SDS011;22266;52.340;4.962;2022-11-20T06:53:16;14.00;;;14.00;;
36221;SDS011;22266;52.340;4.962;2022-11-20T06:55:43;21.25;;;18.00;;
36221;SDS011;22266;52.340;4.962;2022-11-20T06:58:11;27.25;;;18.75;;
36221;SDS011;22266;52.340;4.962;2022-11-20T07:00:38;30.25;;;21.25;;
36221;SDS011;22266;52.340;4.962;2022-11-20T07:03:05;18.50;;;18.50;;
36221;SDS011;22266;52.340;4.962;2022-11-20T07:05:33;17.50;;;15.25;;
36221;SDS011;22266;52.340;4.962;2022-11-20T07:07:59;27.00;;;21.50;;
36221;SDS011;22266;52.340;4.962;2022-11-20T07:10:26;19.50;;;19.50;;
36221;SDS011;22266;52.340;4.962;2022-11-20T07:12:53;15.75;;;15.50;;
36221;SDS011;22266;52.340;4.962;2022-11-20T07:15:20;23.00;;;19.25;;
36221;SDS011;22266;52.340;4.962;2022-11-20T07:17:48;23.00;;;20.00;;
36221;SDS011;22266;52.340;4.962;2022-11-20T07:20:14;21.50;;;18.50;;
36221;SDS011;22266;52.340;4.962;2022-11-20T07:22:41;21.75;;;21.75;;
36221;SDS011;22266;52.340;4.962;2022-11-20T07:25:08;26.50;;;25.50;;
36221;SDS011;22266;52.340;4.962;2022-11-20T07:27:36;19.75;;;17.00;;
36221;SDS011;22266;52.340;4.962;2022-11-20T07:30:02;19.75;;;18.25;;
36221;SDS011;22266;52.340;4.962;2022-11-20T07:32:30;28.75;;;21.25;;
36221;SDS011;22266;52.340;4.962;2022-11-20T07:34:57;21.50;;;20.00;;
36221;SDS011;22266;52.340;4.962;2022-11-20T07:37:23;19.50;;;17.75;;
36221;SDS011;22266;52.340;4.962;2022-11-20T07:39:49;24.75;;;20.00;;
36221;SDS011;22266;52.340;4.962;2022-11-20T07:42:16;30.00;;;22.00;;
36221;SDS011;22266;52.340;4.962;2022-11-20T07:44:42;35.00;;;21.75;;
36221;SDS011;22266;52.340;4.962;2022-11-20T07:47:09;28.00;;;20.25;;
36221;SDS011;22266;52.340;4.962;2022-11-20T07:49:35;21.75;;;20.75;;
36221;SDS011;22266;52.340;4.962;2022-11-20T07:52:02;24.50;;;20.75;;
36221;SDS011;22266;52.340;4.962;2022-11-20T07:54:30;23.00;;;17.50;;
36221;SDS011;22266;52.340;4.962;2022-11-20T07:56:56;22.50;;;19.00;;
36221;SDS011;22266;52.340;4.962;2022-11-20T07:59:23;22.25;;;18.75;;
36221;SDS011;22266;52.340;4.962;2022-11-20T08:01:49;19.50;;;16.00;;
36221;SDS011;22266;52.340;4.962;2022-11-20T08:04:16;22.75;;;21.50;;
36221;SDS011;22266;52.340;4.962;2022-11-20T08:06:42;27.75;;;24.75;;
36221;SDS011;22266;52.340;4.962;2022-11-20T08:09:09;30.00;;;22.50;;
36221;SDS011;22266;52.340;4.962;2022-11-20T08:11:35;30.25;;;29.00;;
36221;SDS011;22266;52.340;4.962;2022-11-20T08:14:20;24.50;;;21.75;;
36221;SDS011;22266;52.340;4.962;2022-11-20T08:16:47;29.25;;;21.25;;
36221;SDS011;22266;52.340;4.962;2022-11-20T08:19:15;26.00;;;25.25;;
36221;SDS011;22266;52.340;4.962;2022-11-20T08:21:44;18.00;;;15.50;;
36221;SDS011;22266;52.340;4.962;2022-11-20T08:24:11;30.75;;;24.75;;
36221;SDS011;22266;52.340;4.962;2022-11-20T08:26:38;38.00;;;24.00;;
36221;SDS011;22266;52.340;4.962;2022-11-20T08:29:05;27.75;;;24.00;;
36221;SDS011;22266;52.340;4.962;2022-11-20T08:31:32;24.25;;;18.25;;
36221;SDS011;22266;52.340;4.962;2022-11-20T08:33:58;28.50;;;24.25;;
36221;SDS011;22266;52.340;4.962;2022-11-20T08:36:25;24.00;;;22.00;;
36221;SDS011;22266;52.340;4.962;2022-11-20T08:38:52;33.25;;;29.00;;
36221;SDS011;22266;52.340;4.962;2022-11-20T08:41:20;41.00;;;32.00;;
36221;SDS011;22266;52.340;4.962;2022-11-20T08:43:52;35.25;;;29.50;;
36221;SDS011;22266;52.340;4.962;2022-11-20T08:46:24;33.75;;;29.00;;
36221;SDS011;22266;52.340;4.962;2022-11-20T08:48:51;33.00;;;29.00;;
36221;SDS011;22266;52.340;4.962;2022-11-20T08:51:19;33.75;;;31.25;;
36221;SDS011;22266;52.340;4.962;2022-11-20T08:53:46;38.50;;;28.25;;
36221;SDS011;22266;52.340;4.962;2022-11-20T08:56:14;26.25;;;23.00;;
36221;SDS011;22266;52.340;4.962;2022-11-20T08:58:41;31.75;;;28.25;;
36221;SDS011;22266;52.340;4.962;2022-11-20T09:01:28;31.25;;;26.75;;
36221;SDS011;22266;52.340;4.962;2022-11-20T09:03:55;29.00;;;26.50;;
36221;SDS011;22266;52.340;4.962;2022-11-20T09:06:23;30.25;;;24.50;;
36221;SDS011;22266;52.340;4.962;2022-11-20T09:08:52;26.50;;;25.50;;
36221;SDS011;22266;52.340;4.962;2022-11-20T09:11:19;32.25;;;31.00;;
36221;SDS011;22266;52.340;4.962;2022-11-20T09:13:46;39.00;;;29.50;;
36221;SDS011;22266;52.340;4.962;2022-11-20T09:16:13;30.50;;;25.00;;
36221;SDS011;22266;52.340;4.962;2022-11-20T09:18:39;34.50;;;31.75;;
36221;SDS011;22266;52.340;4.962;2022-11-20T09:21:07;33.75;;;32.50;;
36221;SDS011;22266;52.340;4.962;2022-11-20T09:23:37;30.75;;;29.25;;
36221;SDS011;22266;52.340;4.962;2022-11-20T09:26:04;38.50;;;35.50;;
36221;SDS011;22266;52.340;4.962;2022-11-20T09:28:33;40.50;;;30.75;;
36221;SDS011;22266;52.340;4.962;2022-11-20T09:30:59;30.00;;;28.50;;
36221;SDS011;22266;52.340;4.962;2022-11-20T09:33:26;35.00;;;29.75;;
36221;SDS011;22266;52.340;4.962;2022-11-20T09:35:52;42.50;;;35.75;;
36221;SDS011;22266;52.340;4.962;2022-11-20T09:38:19;37.00;;;32.75;;
36221;SDS011;22266;52.340;4.962;2022-11-20T09:41:10;40.50;;;36.00;;
36221;SDS011;22266;52.340;4.962;2022-11-20T09:51:41;38.25;;;33.75;;
36221;SDS011;22266;52.340;4.962;2022-11-20T09:56:50;45.00;;;34.50;;
36221;SDS011;22266;52.340;4.962;2022-11-20T10:02:26;41.00;;;35.33;;
36221;SDS011;22266;52.340;4.962;2022-11-20T10:07:37;44.50;;;41.00;;
36221;SDS011;22266;52.340;4.962;2022-11-20T10:10:16;34.00;;;30.25;;
36221;SDS011;22266;52.340;4.962;2022-11-20T10:13:17;43.50;;;39.25;;
36221;SDS011;22266;52.340;4.962;2022-11-20T10:22:09;33.00;;;30.25;;
36221;SDS011;22266;52.340;4.962;2022-11-20T10:30:40;46.25;;;37.00;;
36221;SDS011;22266;52.340;4.962;2022-11-20T10:33:19;48.75;;;43.75;;
36221;SDS011;22266;52.340;4.962;2022-11-20T10:35:50;33.75;;;30.75;;
36221;SDS011;22266;52.340;4.962;2022-11-20T10:38:25;32.25;;;31.75;;
36221;SDS011;22266;52.340;4.962;2022-11-20T10:40:59;52.25;;;42.00;;
36221;SDS011;22266;52.340;4.962;2022-11-20T10:43:47;44.50;;;41.00;;
36221;SDS011;22266;52.340;4.962;2022-11-20T10:46:20;43.50;;;39.25;;
36221;SDS011;22266;52.340;4.962;2022-11-20T10:48:48;36.50;;;36.25;;
36221;SDS011;22266;52.340;4.962;2022-11-20T10:51:35;49.25;;;35.75;;
36221;SDS011;22266;52.340;4.962;2022-11-20T10:57:02;36.75;;;33.75;;
36221;SDS011;22266;52.340;4.962;2022-11-20T11:02:15;36.00;;;30.00;;
36221;SDS011;22266;52.340;4.962;2022-11-20T11:04:50;45.00;;;37.00;;
36221;SDS011;22266;52.340;4.962;2022-11-20T11:07:24;42.75;;;35.25;;
36221;SDS011;22266;52.340;4.962;2022-11-20T11:09:56;40.50;;;35.00;;
36221;SDS011;22266;52.340;4.962;2022-11-20T11:12:24;46.00;;;36.50;;
36221;SDS011;22266;52.340;4.962;2022-11-20T11:14:53;40.00;;;31.75;;
36221;SDS011;22266;52.340;4.962;2022-11-20T11:17:34;51.75;;;36.25;;
36221;SDS011;22266;52.340;4.962;2022-11-20T11:20:01;42.50;;;36.00;;
36221;SDS011;22266;52.340;4.962;2022-11-20T11:22:44;44.75;;;39.25;;
36221;SDS011;22266;52.340;4.962;2022-11-20T11:25:34;33.50;;;30.00;;
36221;SDS011;22266;52.340;4.962;2022-11-20T11:28:03;38.50;;;30.75;;
36221;SDS011;22266;52.340;4.962;2022-11-20T11:30:45;43.00;;;34.75;;
36221;SDS011;22266;52.340;4.962;2022-11-20T11:33:19;40.75;;;37.00;;
36221;SDS011;22266;52.340;4.962;2022-11-20T11:35:51;43.75;;;39.50;;
36221;SDS011;22266;52.340;4.962;2022-11-20T11:38:35;49.00;;;43.50;;
36221;SDS011;22266;52.340;4.962;2022-11-20T11:41:04;42.00;;;35.00;;
36221;SDS011;22266;52.340;4.962;2022-11-20T11:43:33;47.25;;;41.50;;
36221;SDS011;22266;52.340;4.962;2022-11-20T11:48:59;45.75;;;42.25;;
36221;SDS011;22266;52.340;4.962;2022-11-20T11:51:38;45.00;;;40.50;;
36221;SDS011;22266;52.340;4.962;2022-11-20T11:54:21;45.50;;;39.25;;
36221;SDS011;22266;52.340;4.962;2022-11-20T11:56:52;54.50;;;45.50;;
36221;SDS011;22266;52.340;4.962;2022-11-20T11:59:33;44.50;;;41.50;;
36221;SDS011;22266;52.340;4.962;2022-11-20T12:02:35;48.00;;;45.25;;
36221;SDS011;22266;52.340;4.962;2022-11-20T12:05:41;46.00;;;41.00;;
36221;SDS011;22266;52.340;4.962;2022-11-20T12:10:57;53.75;;;44.00;;
36221;SDS011;22266;52.340;4.962;2022-11-20T12:13:40;50.75;;;38.00;;
36221;SDS011;22266;52.340;4.962;2022-11-20T12:16:12;46.50;;;44.00;;
36221;SDS011;22266;52.340;4.962;2022-11-20T12:18:40;50.50;;;45.00;;
36221;SDS011;22266;52.340;4.962;2022-11-20T12:24:03;56.50;;;46.75;;
36221;SDS011;22266;52.340;4.962;2022-11-20T12:32:11;56.00;;;46.75;;
36221;SDS011;22266;52.340;4.962;2022-11-20T12:34:52;52.25;;;46.00;;
36221;SDS011;22266;52.340;4.962;2022-11-20T12:37:39;51.50;;;44.25;;
36221;SDS011;22266;52.340;4.962;2022-11-20T12:43:14;57.75;;;47.75;;
36221;SDS011;22266;52.340;4.962;2022-11-20T12:51:48;57.25;;;45.75;;
36221;SDS011;22266;52.340;4.962;2022-11-20T12:54:41;51.25;;;44.00;;
36221;SDS011;22266;52.340;4.962;2022-11-20T12:57:32;57.50;;;46.75;;
36221;SDS011;22266;52.340;4.962;2022-11-20T13:08:28;47.00;;;43.00;;
36221;SDS011;22266;52.340;4.962;2022-11-20T13:11:44;55.25;;;44.50;;
36221;SDS011;22266;52.340;4.962;2022-11-20T13:16:57;48.00;;;44.75;;
36221;SDS011;22266;52.340;4.962;2022-11-20T13:19:31;52.50;;;45.00;;
36221;SDS011;22266;52.340;4.962;2022-11-20T13:21:59;53.00;;;41.25;;
36221;SDS011;22266;52.340;4.962;2022-11-20T13:24:29;57.25;;;48.50;;
36221;SDS011;22266;52.340;4.962;2022-11-20T13:27:01;64.50;;;51.25;;
36221;SDS011;22266;52.340;4.962;2022-11-20T13:29:30;60.75;;;48.00;;
36221;SDS011;22266;52.340;4.962;2022-11-20T13:32:14;56.50;;;44.50;;
36221;SDS011;22266;52.340;4.962;2022-11-20T13:34:55;62.25;;;47.25;;
36221;SDS011;22266;52.340;4.962;2022-11-20T13:37:33;58.75;;;45.00;;
36221;SDS011;22266;52.340;4.962;2022-11-20T13:42:40;51.00;;;43.75;;
36221;SDS011;22266;52.340;4.962;2022-11-20T13:45:24;55.75;;;46.75;;
36221;SDS011;22266;52.340;4.962;2022-11-20T13:47:53;54.00;;;46.75;;
36221;SDS011;22266;52.340;4.962;2022-11-20T13:50:21;56.00;;;46.75;;
36221;SDS011;22266;52.340;4.962;2022-11-20T13:53:13;48.25;;;43.00;;
36221;SDS011;22266;52.340;4.962;2022-11-20T13:55:57;59.25;;;46.75;;
36221;SDS011;22266;52.340;4.962;2022-11-20T13:58:30;60.75;;;47.00;;
36221;SDS011;22266;52.340;4.962;2022-11-20T14:01:21;60.00;;;47.00;;
36221;SDS011;22266;52.340;4.962;2022-11-20T14:03:50;62.50;;;49.50;;
36221;SDS011;22266;52.340;4.962;2022-11-20T14:06:39;54.75;;;45.75;;
36221;SDS011;22266;52.340;4.962;2022-11-20T14:09:50;57.25;;;45.50;;
36221;SDS011;22266;52.340;4.962;2022-11-20T14:11:58;46.25;;;45.25;;
36221;SDS011;22266;52.340;4.962;2022-11-20T14:14:25;65.50;;;48.50;;
36221;SDS011;22266;52.340;4.962;2022-11-20T14:17:07;61.75;;;48.50;;
36221;SDS011;22266;52.340;4.962;2022-11-20T14:19:51;66.25;;;47.75;;
36221;SDS011;22266;52.340;4.962;2022-11-20T14:24:48;59.75;;;52.00;;
36221;SDS011;22266;52.340;4.962;2022-11-20T14:27:26;53.75;;;47.00;;
36221;SDS011;22266;52.340;4.962;2022-11-20T14:29:53;50.00;;;43.50;;
36221;SDS011;22266;52.340;4.962;2022-11-20T14:32:20;57.75;;;47.25;;
36221;SDS011;22266;52.340;4.962;2022-11-20T14:34:53;56.75;;;45.00;;
36221;SDS011;22266;52.340;4.962;2022-11-20T14:37:21;55.50;;;47.25;;
36221;SDS011;22266;52.340;4.962;2022-11-20T14:39:51;53.50;;;47.25;;
36221;SDS011;22266;52.340;4.962;2022-11-20T14:42:23;62.50;;;49.00;;
36221;SDS011;22266;52.340;4.962;2022-11-20T14:44:51;50.25;;;46.00;;
36221;SDS011;22266;52.340;4.962;2022-11-20T14:47:22;56.00;;;48.50;;
36221;SDS011;22266;52.340;4.962;2022-11-20T14:49:51;52.25;;;44.50;;
36221;SDS011;22266;52.340;4.962;2022-11-20T14:52:20;45.75;;;41.75;;
36221;SDS011;22266;52.340;4.962;2022-11-20T14:54:52;42.50;;;40.25;;
36221;SDS011;22266;52.340;4.962;2022-11-20T15:00:06;51.00;;;42.00;;
36221;SDS011;22266;52.340;4.962;2022-11-20T15:02:33;43.50;;;37.75;;
36221;SDS011;22266;52.340;4.962;2022-11-20T15:05:00;63.50;;;44.50;;
36221;SDS011;22266;52.340;4.962;2022-11-20T15:07:33;54.25;;;39.75;;
36221;SDS011;22266;52.340;4.962;2022-11-20T15:10:05;49.00;;;41.25;;
36221;SDS011;22266;52.340;4.962;2022-11-20T15:13:00;50.75;;;39.75;;
36221;SDS011;22266;52.340;4.962;2022-11-20T15:15:39;53.25;;;43.50;;
36221;SDS011;22266;52.340;4.962;2022-11-20T15:18:12;50.25;;;38.75;;
36221;SDS011;22266;52.340;4.962;2022-11-20T15:20:41;66.50;;;46.25;;
36221;SDS011;22266;52.340;4.962;2022-11-20T15:23:09;52.75;;;38.75;;
36221;SDS011;22266;52.340;4.962;2022-11-20T15:25:41;46.75;;;41.00;;
36221;SDS011;22266;52.340;4.962;2022-11-20T15:30:48;42.25;;;38.50;;
36221;SDS011;22266;52.340;4.962;2022-11-20T15:33:16;46.25;;;41.00;;
36221;SDS011;22266;52.340;4.962;2022-11-20T15:35:43;50.00;;;42.25;;
36221;SDS011;22266;52.340;4.962;2022-11-20T15:38:10;46.50;;;38.25;;
36221;SDS011;22266;52.340;4.962;2022-11-20T15:40:36;44.75;;;42.25;;
36221;SDS011;22266;52.340;4.962;2022-11-20T15:43:03;49.00;;;41.00;;
36221;SDS011;22266;52.340;4.962;2022-11-20T15:45:39;52.25;;;43.75;;
36221;SDS011;22266;52.340;4.962;2022-11-20T15:48:13;49.50;;;44.25;;
36221;SDS011;22266;52.340;4.962;2022-11-20T15:50:48;50.50;;;42.00;;
36221;SDS011;22266;52.340;4.962;2022-11-20T15:53:27;48.75;;;36.75;;
36221;SDS011;22266;52.340;4.962;2022-11-20T15:55:54;43.75;;;37.75;;
36221;SDS011;22266;52.340;4.962;2022-11-20T15:58:20;47.50;;;44.25;;
36221;SDS011;22266;52.340;4.962;2022-11-20T16:00:48;55.50;;;40.75;;
36221;SDS011;22266;52.340;4.962;2022-11-20T16:03:17;62.00;;;49.00;;
36221;SDS011;22266;52.340;4.962;2022-11-20T16:05:44;62.75;;;44.50;;
36221;SDS011;22266;52.340;4.962;2022-11-20T16:08:11;61.00;;;46.00;;